sensor_id;sensor_type;location;lat;lon;timestamp;temperature;humidity
13389;DHT22;6764;53.250;10.410;2022-11-20T00:01:07;3.40;99.90
13389;DHT22;6764;53.250;10.410;2022-11-20T00:03:33;3.30;99.90
13389;DHT22;6764;53.250;10.410;2022-11-20T00:06:06;3.30;99.90
13389;DHT22;6764;53.250;10.410;2022-11-20T00:08:33;3.40;99.90
13389;DHT22;6764;53.250;10.410;2022-11-20T00:11:03;3.30;99.90
13389;DHT22;6764;53.250;10.410;2022-11-20T00:13:29;3.20;99.90
13389;DHT22;6764;53.250;10.410;2022-11-20T00:16:02;3.10;99.90
13389;DHT22;6764;53.250;10.410;2022-11-20T00:18:27;3.00;99.90
13389;DHT22;6764;53.250;10.410;2022-11-20T00:20:53;3.00;99.90
13389;DHT22;6764;53.250;10.410;2022-11-20T00:23:19;3.00;99.90
13389;DHT22;6764;53.250;10.410;2022-11-20T00:25:45;3.00;99.90
13389;DHT22;6764;53.250;10.410;2022-11-20T00:28:10;3.00;99.90
13389;DHT22;6764;53.250;10.410;2022-11-20T00:30:36;2.90;99.90
13389;DHT22;6764;53.250;10.410;2022-11-20T00:33:02;3.00;99.90
13389;DHT22;6764;53.250;10.410;2022-11-20T00:35:27;3.00;99.90
13389;DHT22;6764;53.250;10.410;2022-11-20T00:37:53;3.00;99.90
13389;DHT22;6764;53.250;10.410;2022-11-20T00:40:19;3.00;99.90
13389;DHT22;6764;53.250;10.410;2022-11-20T00:42:44;2.90;99.90
13389;DHT22;6764;53.250;10.410;2022-11-20T00:45:10;3.00;99.90
13389;DHT22;6764;53.250;10.410;2022-11-20T00:47:36;2.90;99.90
13389;DHT22;6764;53.250;10.410;2022-11-20T00:50:01;2.90;99.90
13389;DHT22;6764;53.250;10.410;2022-11-20T00:52:27;2.90;99.90
13389;DHT22;6764;53.250;10.410;2022-11-20T00:54:52;2.80;99.90
13389;DHT22;6764;53.250;10.410;2022-11-20T00:57:18;2.90;99.90
13389;DHT22;6764;53.250;10.410;2022-11-20T00:59:44;2.90;99.90
13389;DHT22;6764;53.250;10.410;2022-11-20T01:02:09;2.80;99.90
13389;DHT22;6764;53.250;10.410;2022-11-20T01:04:35;2.90;99.90
13389;DHT22;6764;53.250;10.410;2022-11-20T01:07:00;2.90;99.90
13389;DHT22;6764;53.250;10.410;2022-11-20T01:09:26;2.90;99.90
13389;DHT22;6764;53.250;10.410;2022-11-20T01:11:51;2.90;99.90
13389;DHT22;6764;53.250;10.410;2022-11-20T01:14:19;3.00;99.90
13389;DHT22;6764;53.250;10.410;2022-11-20T01:16:47;3.00;99.90
13389;DHT22;6764;53.250;10.410;2022-11-20T01:19:19;3.00;99.90
13389;DHT22;6764;53.250;10.410;2022-11-20T01:21:48;3.10;99.90
13389;DHT22;6764;53.250;10.410;2022-11-20T01:24:16;3.10;99.90
13389;DHT22;6764;53.250;10.410;2022-11-20T01:26:43;3.20;99.90
13389;DHT22;6764;53.250;10.410;2022-11-20T01:29:14;3.20;99.90
13389;DHT22;6764;53.250;10.410;2022-11-20T01:31:40;3.10;99.90
13389;DHT22;6764;53.250;10.410;2022-11-20T01:34:08;3.20;99.90
13389;DHT22;6764;53.250;10.410;2022-11-20T01:36:35;3.30;99.90
13389;DHT22;6764;53.250;10.410;2022-11-20T01:39:04;3.30;99.90
13389;DHT22;6764;53.250;10.410;2022-11-20T01:41:32;3.40;99.90
13389;DHT22;6764;53.250;10.410;2022-11-20T01:44:22;3.40;99.90
13389;DHT22;6764;53.250;10.410;2022-11-20T01:49:21;3.40;99.90
13389;DHT22;6764;53.250;10.410;2022-11-20T01:51:52;3.40;99.90
13389;DHT22;6764;53.250;10.410;2022-11-20T01:54:28;3.30;99.90
13389;DHT22;6764;53.250;10.410;2022-11-20T01:56:57;3.30;99.90
13389;DHT22;6764;53.250;10.410;2022-11-20T01:59:26;3.30;99.90
13389;DHT22;6764;53.250;10.410;2022-11-20T02:01:53;3.20;99.90
13389;DHT22;6764;53.250;10.410;2022-11-20T02:04:19;3.10;99.90
13389;DHT22;6764;53.250;10.410;2022-11-20T02:06:57;3.10;99.90
13389;DHT22;6764;53.250;10.410;2022-11-20T02:09:24;3.00;99.90
13389;DHT22;6764;53.250;10.410;2022-11-20T02:11:50;3.00;99.90
13389;DHT22;6764;53.250;10.410;2022-11-20T02:14:16;3.00;99.90
13389;DHT22;6764;53.250;10.410;2022-11-20T02:16:46;3.00;99.90
13389;DHT22;6764;53.250;10.410;2022-11-20T02:19:32;2.90;99.90
13389;DHT22;6764;53.250;10.410;2022-11-20T02:22:28;2.80;99.90
13389;DHT22;6764;53.250;10.410;2022-11-20T02:24:57;2.80;99.90
13389;DHT22;6764;53.250;10.410;2022-11-20T02:27:24;2.80;99.90
13389;DHT22;6764;53.250;10.410;2022-11-20T02:29:58;2.80;99.90
13389;DHT22;6764;53.250;10.410;2022-11-20T02:32:33;2.80;99.90
13389;DHT22;6764;53.250;10.410;2022-11-20T02:35:10;2.70;99.90
13389;DHT22;6764;53.250;10.410;2022-11-20T02:37:54;2.70;99.90
13389;DHT22;6764;53.250;10.410;2022-11-20T02:40:21;2.60;99.90
13389;DHT22;6764;53.250;10.410;2022-11-20T02:42:47;2.60;99.90
13389;DHT22;6764;53.250;10.410;2022-11-20T02:45:12;2.60;99.90
13389;DHT22;6764;53.250;10.410;2022-11-20T02:47:38;2.50;99.90
13389;DHT22;6764;53.250;10.410;2022-11-20T02:50:05;2.50;99.90
13389;DHT22;6764;53.250;10.410;2022-11-20T02:52:31;2.60;99.90
13389;DHT22;6764;53.250;10.410;2022-11-20T02:54:56;2.60;99.90
13389;DHT22;6764;53.250;10.410;2022-11-20T02:57:22;2.60;99.90
13389;DHT22;6764;53.250;10.410;2022-11-20T02:59:48;2.60;99.90
13389;DHT22;6764;53.250;10.410;2022-11-20T03:02:13;2.60;99.90
13389;DHT22;6764;53.250;10.410;2022-11-20T03:04:39;2.60;99.90
13389;DHT22;6764;53.250;10.410;2022-11-20T03:07:04;2.60;99.90
13389;DHT22;6764;53.250;10.410;2022-11-20T03:09:30;2.60;99.90
13389;DHT22;6764;53.250;10.410;2022-11-20T03:11:56;2.60;99.90
13389;DHT22;6764;53.250;10.410;2022-11-20T03:14:21;2.60;99.90
13389;DHT22;6764;53.250;10.410;2022-11-20T03:16:47;2.60;99.90
13389;DHT22;6764;53.250;10.410;2022-11-20T03:19:13;2.70;99.90
13389;DHT22;6764;53.250;10.410;2022-11-20T03:21:39;2.70;99.90
13389;DHT22;6764;53.250;10.410;2022-11-20T03:24:05;2.60;99.90
13389;DHT22;6764;53.250;10.410;2022-11-20T03:26:31;2.60;99.90
13389;DHT22;6764;53.250;10.410;2022-11-20T03:28:59;2.70;99.90
13389;DHT22;6764;53.250;10.410;2022-11-20T03:31:27;2.70;99.90
13389;DHT22;6764;53.250;10.410;2022-11-20T03:33:53;2.70;99.90
13389;DHT22;6764;53.250;10.410;2022-11-20T03:36:20;2.70;99.90
13389;DHT22;6764;53.250;10.410;2022-11-20T03:38:46;2.70;99.90
13389;DHT22;6764;53.250;10.410;2022-11-20T03:41:17;2.70;99.90
13389;DHT22;6764;53.250;10.410;2022-11-20T03:43:57;2.70;99.90
13389;DHT22;6764;53.250;10.410;2022-11-20T03:46:23;2.70;99.90
13389;DHT22;6764;53.250;10.410;2022-11-20T03:48:49;2.70;99.90
13389;DHT22;6764;53.250;10.410;2022-11-20T03:51:20;2.70;99.90
13389;DHT22;6764;53.250;10.410;2022-11-20T03:53:47;2.70;99.90
13389;DHT22;6764;53.250;10.410;2022-11-20T03:56:15;2.70;99.90
13389;DHT22;6764;53.250;10.410;2022-11-20T03:58:42;2.70;99.90
13389;DHT22;6764;53.250;10.410;2022-11-20T04:01:16;2.70;99.90
13389;DHT22;6764;53.250;10.410;2022-11-20T04:03:43;2.70;99.90
13389;DHT22;6764;53.250;10.410;2022-11-20T04:06:12;2.70;99.90
13389;DHT22;6764;53.250;10.410;2022-11-20T04:08:38;2.70;99.90
13389;DHT22;6764;53.250;10.410;2022-11-20T04:13:36;2.70;99.90
13389;DHT22;6764;53.250;10.410;2022-11-20T04:16:03;2.60;99.90
13389;DHT22;6764;53.250;10.410;2022-11-20T04:18:28;2.60;99.90
13389;DHT22;6764;53.250;10.410;2022-11-20T04:20:56;2.60;99.90
13389;DHT22;6764;53.250;10.410;2022-11-20T04:23:22;2.60;99.90
13389;DHT22;6764;53.250;10.410;2022-11-20T04:25:48;2.60;99.90
13389;DHT22;6764;53.250;10.410;2022-11-20T04:28:14;2.60;99.90
13389;DHT22;6764;53.250;10.410;2022-11-20T04:30:39;2.50;99.90
13389;DHT22;6764;53.250;10.410;2022-11-20T04:33:05;2.60;99.90
13389;DHT22;6764;53.250;10.410;2022-11-20T04:35:34;2.60;99.90
13389;DHT22;6764;53.250;10.410;2022-11-20T04:37:59;2.70;99.90
13389;DHT22;6764;53.250;10.410;2022-11-20T04:40:25;2.70;99.90
13389;DHT22;6764;53.250;10.410;2022-11-20T04:42:51;2.70;99.90
13389;DHT22;6764;53.250;10.410;2022-11-20T04:45:16;2.70;99.90
13389;DHT22;6764;53.250;10.410;2022-11-20T04:47:42;2.70;99.90
13389;DHT22;6764;53.250;10.410;2022-11-20T04:50:08;2.70;99.90
13389;DHT22;6764;53.250;10.410;2022-11-20T04:52:33;2.70;99.90
13389;DHT22;6764;53.250;10.410;2022-11-20T04:54:59;2.80;99.90
13389;DHT22;6764;53.250;10.410;2022-11-20T04:57:25;2.70;99.90
13389;DHT22;6764;53.250;10.410;2022-11-20T04:59:50;2.70;99.90
13389;DHT22;6764;53.250;10.410;2022-11-20T05:02:16;2.70;99.90
13389;DHT22;6764;53.250;10.410;2022-11-20T05:04:42;2.70;99.90
13389;DHT22;6764;53.250;10.410;2022-11-20T05:07:07;2.80;99.90
13389;DHT22;6764;53.250;10.410;2022-11-20T05:09:33;2.80;99.90
13389;DHT22;6764;53.250;10.410;2022-11-20T05:11:58;2.70;99.90
13389;DHT22;6764;53.250;10.410;2022-11-20T05:14:24;2.70;99.90
13389;DHT22;6764;53.250;10.410;2022-11-20T05:16:50;2.70;99.90
13389;DHT22;6764;53.250;10.410;2022-11-20T05:19:15;2.80;99.90
13389;DHT22;6764;53.250;10.410;2022-11-20T05:21:41;2.80;99.90
13389;DHT22;6764;53.250;10.410;2022-11-20T05:24:06;2.90;99.90
13389;DHT22;6764;53.250;10.410;2022-11-20T05:26:32;2.90;99.90
13389;DHT22;6764;53.250;10.410;2022-11-20T05:28:58;2.90;99.90
13389;DHT22;6764;53.250;10.410;2022-11-20T05:31:25;2.90;99.90
13389;DHT22;6764;53.250;10.410;2022-11-20T05:33:51;2.90;99.90
13389;DHT22;6764;53.250;10.410;2022-11-20T05:36:17;2.90;99.90
13389;DHT22;6764;53.250;10.410;2022-11-20T05:38:43;2.80;99.90
13389;DHT22;6764;53.250;10.410;2022-11-20T05:41:16;2.80;99.90
13389;DHT22;6764;53.250;10.410;2022-11-20T05:43:44;2.80;99.90
13389;DHT22;6764;53.250;10.410;2022-11-20T05:46:12;2.80;99.90
13389;DHT22;6764;53.250;10.410;2022-11-20T05:48:38;2.70;99.90
13389;DHT22;6764;53.250;10.410;2022-11-20T05:51:07;2.70;99.90
13389;DHT22;6764;53.250;10.410;2022-11-20T05:53:33;2.70;99.90
13389;DHT22;6764;53.250;10.410;2022-11-20T05:56:13;2.70;99.90
13389;DHT22;6764;53.250;10.410;2022-11-20T05:58:40;2.70;99.90
13389;DHT22;6764;53.250;10.410;2022-11-20T06:03:40;2.60;99.90
13389;DHT22;6764;53.250;10.410;2022-11-20T06:06:07;2.60;99.90
13389;DHT22;6764;53.250;10.410;2022-11-20T06:08:33;2.50;99.90
13389;DHT22;6764;53.250;10.410;2022-11-20T06:11:04;2.60;99.90
13389;DHT22;6764;53.250;10.410;2022-11-20T06:13:29;2.60;99.90
13389;DHT22;6764;53.250;10.410;2022-11-20T06:15:55;2.60;99.90
13389;DHT22;6764;53.250;10.410;2022-11-20T06:18:21;2.60;99.90
13389;DHT22;6764;53.250;10.410;2022-11-20T06:20:47;2.70;99.90
13389;DHT22;6764;53.250;10.410;2022-11-20T06:23:13;2.60;99.90
13389;DHT22;6764;53.250;10.410;2022-11-20T06:25:40;2.60;99.90
13389;DHT22;6764;53.250;10.410;2022-11-20T06:28:06;2.60;99.90
13389;DHT22;6764;53.250;10.410;2022-11-20T06:30:32;2.50;99.90
13389;DHT22;6764;53.250;10.410;2022-11-20T06:32:58;2.60;99.90
13389;DHT22;6764;53.250;10.410;2022-11-20T06:35:23;2.60;99.90
13389;DHT22;6764;53.250;10.410;2022-11-20T06:37:49;2.60;99.90
13389;DHT22;6764;53.250;10.410;2022-11-20T06:40:15;2.50;99.90
13389;DHT22;6764;53.250;10.410;2022-11-20T06:42:40;2.50;99.90
13389;DHT22;6764;53.250;10.410;2022-11-20T06:45:06;2.50;99.90
13389;DHT22;6764;53.250;10.410;2022-11-20T06:47:32;2.50;99.90
13389;DHT22;6764;53.250;10.410;2022-11-20T06:49:58;2.50;99.90
13389;DHT22;6764;53.250;10.410;2022-11-20T06:52:24;2.50;99.90
13389;DHT22;6764;53.250;10.410;2022-11-20T06:54:49;2.40;99.90
13389;DHT22;6764;53.250;10.410;2022-11-20T06:57:15;2.40;99.90
13389;DHT22;6764;53.250;10.410;2022-11-20T06:59:41;2.40;99.90
13389;DHT22;6764;53.250;10.410;2022-11-20T07:02:10;2.40;99.90
13389;DHT22;6764;53.250;10.410;2022-11-20T07:04:36;2.40;99.90
13389;DHT22;6764;53.250;10.410;2022-11-20T07:07:01;2.40;99.90
13389;DHT22;6764;53.250;10.410;2022-11-20T07:09:27;2.40;99.90
13389;DHT22;6764;53.250;10.410;2022-11-20T07:11:53;2.30;99.90
13389;DHT22;6764;53.250;10.410;2022-11-20T07:14:18;2.30;99.90
13389;DHT22;6764;53.250;10.410;2022-11-20T07:16:44;2.30;99.90
13389;DHT22;6764;53.250;10.410;2022-11-20T07:19:09;2.20;99.90
13389;DHT22;6764;53.250;10.410;2022-11-20T07:21:35;2.30;99.90
13389;DHT22;6764;53.250;10.410;2022-11-20T07:24:01;2.20;99.90
13389;DHT22;6764;53.250;10.410;2022-11-20T07:26:26;2.20;99.90
13389;DHT22;6764;53.250;10.410;2022-11-20T07:28:52;2.30;99.90
13389;DHT22;6764;53.250;10.410;2022-11-20T07:31:18;2.30;99.90
13389;DHT22;6764;53.250;10.410;2022-11-20T07:33:43;2.40;99.90
13389;DHT22;6764;53.250;10.410;2022-11-20T07:36:09;2.40;99.90
13389;DHT22;6764;53.250;10.410;2022-11-20T07:38:34;2.40;99.90
13389;DHT22;6764;53.250;10.410;2022-11-20T07:41:00;2.40;99.90
13389;DHT22;6764;53.250;10.410;2022-11-20T07:43:27;2.60;99.90
13389;DHT22;6764;53.250;10.410;2022-11-20T07:45:55;2.70;99.90
13389;DHT22;6764;53.250;10.410;2022-11-20T07:48:21;2.70;99.90
13389;DHT22;6764;53.250;10.410;2022-11-20T07:50:47;2.80;99.90
13389;DHT22;6764;53.250;10.410;2022-11-20T07:53:13;2.80;99.90
13389;DHT22;6764;53.250;10.410;2022-11-20T07:55:39;2.80;99.90
13389;DHT22;6764;53.250;10.410;2022-11-20T07:58:05;2.90;99.90
13389;DHT22;6764;53.250;10.410;2022-11-20T08:00:30;2.90;99.90
13389;DHT22;6764;53.250;10.410;2022-11-20T08:02:56;2.90;99.90
13389;DHT22;6764;53.250;10.410;2022-11-20T08:05:22;3.00;99.90
13389;DHT22;6764;53.250;10.410;2022-11-20T08:07:47;3.10;99.90
13389;DHT22;6764;53.250;10.410;2022-11-20T08:10:15;3.10;99.90
13389;DHT22;6764;53.250;10.410;2022-11-20T08:12:49;3.20;99.90
13389;DHT22;6764;53.250;10.410;2022-11-20T08:15:34;3.20;99.90
13389;DHT22;6764;53.250;10.410;2022-11-20T08:18:05;3.30;99.90
13389;DHT22;6764;53.250;10.410;2022-11-20T08:20:31;3.50;99.90
13389;DHT22;6764;53.250;10.410;2022-11-20T08:23:01;3.50;99.90
13389;DHT22;6764;53.250;10.410;2022-11-20T08:25:30;3.60;99.90
13389;DHT22;6764;53.250;10.410;2022-11-20T08:28:04;3.60;99.90
13389;DHT22;6764;53.250;10.410;2022-11-20T08:30:31;3.70;99.90
13389;DHT22;6764;53.250;10.410;2022-11-20T08:33:05;3.70;99.90
13389;DHT22;6764;53.250;10.410;2022-11-20T08:35:35;3.70;99.90
13389;DHT22;6764;53.250;10.410;2022-11-20T08:38:02;3.70;99.90
13389;DHT22;6764;53.250;10.410;2022-11-20T08:40:28;3.80;99.90
13389;DHT22;6764;53.250;10.410;2022-11-20T08:42:53;3.90;99.90
13389;DHT22;6764;53.250;10.410;2022-11-20T08:45:19;4.00;99.90
13389;DHT22;6764;53.250;10.410;2022-11-20T08:47:45;4.00;99.90
13389;DHT22;6764;53.250;10.410;2022-11-20T08:50:13;4.10;99.90
13389;DHT22;6764;53.250;10.410;2022-11-20T08:52:39;4.00;99.90
13389;DHT22;6764;53.250;10.410;2022-11-20T08:55:06;4.10;99.90
13389;DHT22;6764;53.250;10.410;2022-11-20T08:57:35;4.10;99.90
13389;DHT22;6764;53.250;10.410;2022-11-20T09:00:04;4.20;99.90
13389;DHT22;6764;53.250;10.410;2022-11-20T09:02:30;4.30;99.90
13389;DHT22;6764;53.250;10.410;2022-11-20T09:04:55;4.50;99.90
13389;DHT22;6764;53.250;10.410;2022-11-20T09:07:21;4.60;99.90
13389;DHT22;6764;53.250;10.410;2022-11-20T09:09:47;4.70;99.90
13389;DHT22;6764;53.250;10.410;2022-11-20T09:12:13;4.90;99.90
13389;DHT22;6764;53.250;10.410;2022-11-20T09:14:39;5.00;99.90
13389;DHT22;6764;53.250;10.410;2022-11-20T09:17:04;5.20;99.90
13389;DHT22;6764;53.250;10.410;2022-11-20T09:19:30;5.30;99.90
13389;DHT22;6764;53.250;10.410;2022-11-20T09:21:56;5.30;99.90
13389;DHT22;6764;53.250;10.410;2022-11-20T09:24:21;5.30;99.90
13389;DHT22;6764;53.250;10.410;2022-11-20T09:26:47;5.20;99.90
13389;DHT22;6764;53.250;10.410;2022-11-20T09:29:12;5.10;99.90
13389;DHT22;6764;53.250;10.410;2022-11-20T09:31:38;4.90;99.90
13389;DHT22;6764;53.250;10.410;2022-11-20T09:34:04;4.90;99.90
13389;DHT22;6764;53.250;10.410;2022-11-20T09:36:29;4.90;99.90
13389;DHT22;6764;53.250;10.410;2022-11-20T09:38:55;4.90;99.90
13389;DHT22;6764;53.250;10.410;2022-11-20T09:44:11;4.80;99.90
13389;DHT22;6764;53.250;10.410;2022-11-20T09:49:27;4.70;99.90
13389;DHT22;6764;53.250;10.410;2022-11-20T09:54:39;4.60;99.90
13389;DHT22;6764;53.250;10.410;2022-11-20T09:57:11;4.60;99.90
13389;DHT22;6764;53.250;10.410;2022-11-20T09:59:50;4.50;99.90
13389;DHT22;6764;53.250;10.410;2022-11-20T10:02:19;4.60;99.90
13389;DHT22;6764;53.250;10.410;2022-11-20T10:05:02;4.70;99.90
13389;DHT22;6764;53.250;10.410;2022-11-20T10:10:15;4.70;99.90
13389;DHT22;6764;53.250;10.410;2022-11-20T10:20:48;4.60;99.90
13389;DHT22;6764;53.250;10.410;2022-11-20T10:33:54;4.90;99.90
13389;DHT22;6764;53.250;10.410;2022-11-20T10:36:36;4.90;99.90
13389;DHT22;6764;53.250;10.410;2022-11-20T10:39:15;4.90;99.90
13389;DHT22;6764;53.250;10.410;2022-11-20T10:41:42;4.90;99.90
13389;DHT22;6764;53.250;10.410;2022-11-20T10:44:15;4.90;99.90
13389;DHT22;6764;53.250;10.410;2022-11-20T10:47:19;4.90;99.90
13389;DHT22;6764;53.250;10.410;2022-11-20T10:49:50;4.80;99.90
13389;DHT22;6764;53.250;10.410;2022-11-20T10:57:44;4.70;99.90
13389;DHT22;6764;53.250;10.410;2022-11-20T11:00:12;4.70;99.90
13389;DHT22;6764;53.250;10.410;2022-11-20T11:05:31;4.90;99.90
13389;DHT22;6764;53.250;10.410;2022-11-20T11:07:59;4.90;99.90
13389;DHT22;6764;53.250;10.410;2022-11-20T11:10:36;4.90;99.90
13389;DHT22;6764;53.250;10.410;2022-11-20T11:13:07;4.70;99.90
13389;DHT22;6764;53.250;10.410;2022-11-20T11:15:40;4.70;99.90
13389;DHT22;6764;53.250;10.410;2022-11-20T11:18:10;4.70;99.90
13389;DHT22;6764;53.250;10.410;2022-11-20T11:20:37;4.70;99.90
13389;DHT22;6764;53.250;10.410;2022-11-20T11:23:03;4.70;99.90
13389;DHT22;6764;53.250;10.410;2022-11-20T11:25:35;4.70;99.90
13389;DHT22;6764;53.250;10.410;2022-11-20T11:28:03;4.60;99.90
13389;DHT22;6764;53.250;10.410;2022-11-20T11:30:41;4.50;99.90
13389;DHT22;6764;53.250;10.410;2022-11-20T11:33:11;4.60;99.90
13389;DHT22;6764;53.250;10.410;2022-11-20T11:35:48;4.90;99.90
13389;DHT22;6764;53.250;10.410;2022-11-20T11:38:21;5.00;99.90
13389;DHT22;6764;53.250;10.410;2022-11-20T11:40:48;5.00;99.90
13389;DHT22;6764;53.250;10.410;2022-11-20T11:43:23;5.00;99.90
13389;DHT22;6764;53.250;10.410;2022-11-20T11:46:22;5.00;99.90
13389;DHT22;6764;53.250;10.410;2022-11-20T11:51:37;5.10;99.90
13389;DHT22;6764;53.250;10.410;2022-11-20T11:57:00;5.00;99.90
13389;DHT22;6764;53.250;10.410;2022-11-20T12:05:28;4.90;99.90
13389;DHT22;6764;53.250;10.410;2022-11-20T12:08:21;5.00;99.90
13389;DHT22;6764;53.250;10.410;2022-11-20T12:13:54;5.00;99.90
13389;DHT22;6764;53.250;10.410;2022-11-20T12:16:21;5.10;99.90
13389;DHT22;6764;53.250;10.410;2022-11-20T12:18:51;5.10;99.90
13389;DHT22;6764;53.250;10.410;2022-11-20T12:26:48;5.20;99.90
13389;DHT22;6764;53.250;10.410;2022-11-20T12:29:38;5.30;99.90
13389;DHT22;6764;53.250;10.410;2022-11-20T12:43:26;5.20;99.90
13389;DHT22;6764;53.250;10.410;2022-11-20T12:51:49;5.00;99.90
13389;DHT22;6764;53.250;10.410;2022-11-20T13:07:30;4.40;99.90
13389;DHT22;6764;53.250;10.410;2022-11-20T13:09:58;4.40;99.90
13389;DHT22;6764;53.250;10.410;2022-11-20T13:12:38;4.40;99.90
13389;DHT22;6764;53.250;10.410;2022-11-20T13:15:22;4.40;99.90
13389;DHT22;6764;53.250;10.410;2022-11-20T13:17:56;4.40;99.90
13389;DHT22;6764;53.250;10.410;2022-11-20T13:20:24;4.30;99.90
13389;DHT22;6764;53.250;10.410;2022-11-20T13:22:52;4.30;99.90
13389;DHT22;6764;53.250;10.410;2022-11-20T13:25:25;4.30;99.90
13389;DHT22;6764;53.250;10.410;2022-11-20T13:27:51;4.40;99.90
13389;DHT22;6764;53.250;10.410;2022-11-20T13:30:22;4.40;99.90
13389;DHT22;6764;53.250;10.410;2022-11-20T13:35:26;4.40;99.90
13389;DHT22;6764;53.250;10.410;2022-11-20T13:40:31;4.40;99.90
13389;DHT22;6764;53.250;10.410;2022-11-20T13:45:34;4.40;99.90
13389;DHT22;6764;53.250;10.410;2022-11-20T13:48:05;4.50;99.90
13389;DHT22;6764;53.250;10.410;2022-11-20T13:53:30;4.60;99.90
13389;DHT22;6764;53.250;10.410;2022-11-20T13:56:43;4.60;99.90
13389;DHT22;6764;53.250;10.410;2022-11-20T13:59:07;4.70;99.90
13389;DHT22;6764;53.250;10.410;2022-11-20T14:01:38;4.60;99.90
13389;DHT22;6764;53.250;10.410;2022-11-20T14:04:15;4.60;99.90
13389;DHT22;6764;53.250;10.410;2022-11-20T14:06:46;4.50;99.90
13389;DHT22;6764;53.250;10.410;2022-11-20T14:09:24;4.50;99.90
13389;DHT22;6764;53.250;10.410;2022-11-20T14:11:50;4.40;99.90
13389;DHT22;6764;53.250;10.410;2022-11-20T14:14:18;4.40;99.90
13389;DHT22;6764;53.250;10.410;2022-11-20T14:16:44;4.40;99.90
13389;DHT22;6764;53.250;10.410;2022-11-20T14:22:10;4.30;99.90
13389;DHT22;6764;53.250;10.410;2022-11-20T14:24:40;4.30;99.90
13389;DHT22;6764;53.250;10.410;2022-11-20T14:27:13;4.30;99.90
13389;DHT22;6764;53.250;10.410;2022-11-20T14:29:39;4.30;99.90
13389;DHT22;6764;53.250;10.410;2022-11-20T14:32:09;4.20;99.90
13389;DHT22;6764;53.250;10.410;2022-11-20T14:34:38;4.20;99.90
13389;DHT22;6764;53.250;10.410;2022-11-20T14:37:10;4.20;99.90
13389;DHT22;6764;53.250;10.410;2022-11-20T14:39:41;4.10;99.90
13389;DHT22;6764;53.250;10.410;2022-11-20T14:42:36;4.10;99.90
13389;DHT22;6764;53.250;10.410;2022-11-20T14:45:03;4.00;99.90
13389;DHT22;6764;53.250;10.410;2022-11-20T14:47:30;4.00;99.90
13389;DHT22;6764;53.250;10.410;2022-11-20T14:49:57;4.10;99.90
13389;DHT22;6764;53.250;10.410;2022-11-20T14:52:26;4.10;99.90
13389;DHT22;6764;53.250;10.410;2022-11-20T14:57:28;4.30;99.90
13389;DHT22;6764;53.250;10.410;2022-11-20T15:00:08;4.30;99.90
13389;DHT22;6764;53.250;10.410;2022-11-20T15:02:45;4.20;99.90
13389;DHT22;6764;53.250;10.410;2022-11-20T15:05:12;4.30;99.90
13389;DHT22;6764;53.250;10.410;2022-11-20T15:07:43;4.30;99.90
13389;DHT22;6764;53.250;10.410;2022-11-20T15:10:27;4.30;99.90
13389;DHT22;6764;53.250;10.410;2022-11-20T15:12:53;4.30;99.90
13389;DHT22;6764;53.250;10.410;2022-11-20T15:15:35;4.20;99.90
13389;DHT22;6764;53.250;10.410;2022-11-20T15:18:01;4.10;99.90
13389;DHT22;6764;53.250;10.410;2022-11-20T15:20:32;4.10;99.90
13389;DHT22;6764;53.250;10.410;2022-11-20T15:22:58;4.00;99.90
13389;DHT22;6764;53.250;10.410;2022-11-20T15:25:24;4.00;99.90
13389;DHT22;6764;53.250;10.410;2022-11-20T15:27:56;3.90;99.90
13389;DHT22;6764;53.250;10.410;2022-11-20T15:30:22;3.90;99.90
13389;DHT22;6764;53.250;10.410;2022-11-20T15:32:49;3.80;99.90
13389;DHT22;6764;53.250;10.410;2022-11-20T15:35:15;3.70;99.90
13389;DHT22;6764;53.250;10.410;2022-11-20T15:37:41;3.70;99.90
13389;DHT22;6764;53.250;10.410;2022-11-20T15:40:07;3.60;99.90
13389;DHT22;6764;53.250;10.410;2022-11-20T15:42:34;3.60;99.90
13389;DHT22;6764;53.250;10.410;2022-11-20T15:44:59;3.60;99.90
13389;DHT22;6764;53.250;10.410;2022-11-20T15:47:28;3.60;99.90
13389;DHT22;6764;53.250;10.410;2022-11-20T15:49:55;3.60;99.90
13389;DHT22;6764;53.250;10.410;2022-11-20T15:52:20;3.60;99.90
13389;DHT22;6764;53.250;10.410;2022-11-20T15:54:46;3.50;99.90
13389;DHT22;6764;53.250;10.410;2022-11-20T15:57:12;3.50;99.90
13389;DHT22;6764;53.250;10.410;2022-11-20T15:59:38;3.50;99.90
13389;DHT22;6764;53.250;10.410;2022-11-20T16:02:16;3.50;99.90
13389;DHT22;6764;53.250;10.410;2022-11-20T16:04:41;3.50;99.90
13389;DHT22;6764;53.250;10.410;2022-11-20T16:07:07;3.50;99.90
13389;DHT22;6764;53.250;10.410;2022-11-20T16:09:33;3.50;99.90
13389;DHT22;6764;53.250;10.410;2022-11-20T16:11:59;3.40;99.90
13389;DHT22;6764;53.250;10.410;2022-11-20T16:14:25;3.40;99.90
13389;DHT22;6764;53.250;10.410;2022-11-20T16:17:10;3.50;99.90
13389;DHT22;6764;53.250;10.410;2022-11-20T16:19:36;3.40;99.90
13389;DHT22;6764;53.250;10.410;2022-11-20T16:22:01;3.40;99.90
13389;DHT22;6764;53.250;10.410;2022-11-20T16:24:27;3.40;99.90
13389;DHT22;6764;53.250;10.410;2022-11-20T16:26:54;3.50;99.90
13389;DHT22;6764;53.250;10.410;2022-11-20T16:29:19;3.50;99.90
13389;DHT22;6764;53.250;10.410;2022-11-20T16:31:45;3.50;99.90
13389;DHT22;6764;53.250;10.410;2022-11-20T16:34:11;3.60;99.90
13389;DHT22;6764;53.250;10.410;2022-11-20T16:36:39;3.60;99.90
13389;DHT22;6764;53.250;10.410;2022-11-20T16:39:05;3.60;99.90
13389;DHT22;6764;53.250;10.410;2022-11-20T16:41:33;3.70;99.90
13389;DHT22;6764;53.250;10.410;2022-11-20T16:44:02;3.70;99.90
13389;DHT22;6764;53.250;10.410;2022-11-20T16:46:31;3.70;99.90
13389;DHT22;6764;53.250;10.410;2022-11-20T16:48:58;3.70;99.90
13389;DHT22;6764;53.250;10.410;2022-11-20T16:51:25;3.70;99.90
13389;DHT22;6764;53.250;10.410;2022-11-20T16:53:51;3.70;99.90
13389;DHT22;6764;53.250;10.410;2022-11-20T16:56:19;3.70;99.90
13389;DHT22;6764;53.250;10.410;2022-11-20T16:58:46;3.70;99.90
13389;DHT22;6764;53.250;10.410;2022-11-20T17:01:16;3.70;99.90
13389;DHT22;6764;53.250;10.410;2022-11-20T17:03:43;3.70;99.90
13389;DHT22;6764;53.250;10.410;2022-11-20T17:06:21;3.70;99.90
13389;DHT22;6764;53.250;10.410;2022-11-20T17:08:47;3.70;99.90
13389;DHT22;6764;53.250;10.410;2022-11-20T17:11:18;3.60;99.90
13389;DHT22;6764;53.250;10.410;2022-11-20T17:13:44;3.60;99.90
13389;DHT22;6764;53.250;10.410;2022-11-20T17:16:12;3.50;99.90
13389;DHT22;6764;53.250;10.410;2022-11-20T17:18:39;3.50;99.90
13389;DHT22;6764;53.250;10.410;2022-11-20T17:21:05;3.50;99.90
13389;DHT22;6764;53.250;10.410;2022-11-20T17:23:39;3.40;99.90
13389;DHT22;6764;53.250;10.410;2022-11-20T17:26:07;3.30;99.90
13389;DHT22;6764;53.250;10.410;2022-11-20T17:28:34;3.30;99.90
13389;DHT22;6764;53.250;10.410;2022-11-20T17:31:01;3.20;99.90
13389;DHT22;6764;53.250;10.410;2022-11-20T17:33:28;3.10;99.90
13389;DHT22;6764;53.250;10.410;2022-11-20T17:35:54;3.10;99.90
13389;DHT22;6764;53.250;10.410;2022-11-20T17:38:19;3.00;99.90
13389;DHT22;6764;53.250;10.410;2022-11-20T17:40:45;3.10;99.90
13389;DHT22;6764;53.250;10.410;2022-11-20T17:43:11;3.00;99.90
13389;DHT22;6764;53.250;10.410;2022-11-20T17:45:36;3.00;99.90